createdAt,value
2018-04-24T00:01:22.803Z,85.43
2018-04-24T00:03:50.669Z,84.47
2018-04-24T00:06:18.634Z,86.75
2018-04-24T00:08:46.709Z,83.80
2018-04-24T00:11:14.573Z,85.65
2018-04-24T00:13:42.440Z,85.68
2018-04-24T00:16:10.272Z,87.18
2018-04-24T00:18:38.175Z,82.57
2018-04-24T00:21:06.037Z,88.70
2018-04-24T00:23:33.905Z,86.05
2018-04-24T00:26:01.944Z,89.45
2018-04-24T00:28:29.841Z,84.03
2018-04-24T00:30:57.809Z,85.20
2018-04-24T00:33:25.673Z,84.65
2018-04-24T00:35:53.541Z,85.18
2018-04-24T00:38:21.408Z,85.60
2018-04-24T00:40:49.321Z,85.32
2018-04-24T00:43:17.248Z,89.00
2018-04-24T00:45:46.649Z,86.63
2018-04-24T00:48:14.512Z,86.50
2018-04-24T00:50:42.376Z,86.63
2018-04-24T00:53:22.088Z,90.38
2018-04-24T00:55:49.909Z,87.70
2018-04-24T00:58:18.569Z,85.93
2018-04-24T01:00:46.637Z,88.47
2018-04-24T01:03:14.711Z,87.70
2018-04-24T01:05:42.533Z,87.70
2018-04-24T01:08:10.442Z,90.95
2018-04-24T01:10:38.411Z,87.82
2018-04-24T01:13:06.386Z,89.25
2018-04-24T01:15:34.348Z,89.20
2018-04-24T01:18:02.423Z,88.55
2018-04-24T01:20:30.287Z,88.87
2018-04-24T01:22:58.152Z,88.12
2018-04-24T01:25:26.017Z,88.37
2018-04-24T01:27:53.985Z,87.15
2018-04-24T01:30:21.989Z,87.07
2018-04-24T01:32:50.746Z,84.50
2018-04-24T01:35:18.712Z,89.22
2018-04-24T01:37:46.696Z,87.05
2018-04-24T01:40:14.573Z,89.15
2018-04-24T01:42:43.331Z,88.80
2018-04-24T01:45:11.303Z,93.57
2018-04-24T01:47:39.271Z,89.28
2018-04-24T01:50:07.238Z,91.40
2018-04-24T01:52:35.068Z,90.43
2018-04-24T01:55:02.972Z,89.28
2018-04-24T01:57:30.946Z,89.97
2018-04-24T02:00:00.347Z,92.03
2018-04-24T02:02:28.315Z,88.60
2018-04-24T02:04:56.184Z,90.12
2018-04-24T02:07:24.244Z,88.65
2018-04-24T02:09:52.073Z,91.32
2018-04-24T02:12:19.986Z,89.57
2018-04-24T02:14:47.849Z,90.35
2018-04-24T02:17:15.673Z,91.22
2018-04-24T02:19:43.574Z,89.22
2018-04-24T02:22:11.442Z,93.35
2018-04-24T02:24:39.249Z,90.62
2018-04-24T02:27:07.893Z,92.72
2018-04-24T02:29:35.702Z,90.47
2018-04-24T02:32:03.622Z,93.10
2018-04-24T02:34:31.444Z,90.65
2018-04-24T02:36:59.359Z,91.05
2018-04-24T02:39:27.324Z,88.43
2018-04-24T02:41:55.195Z,91.75
2018-04-24T02:44:23.053Z,89.87
2018-04-24T02:46:50.920Z,92.37
2018-04-24T02:49:18.787Z,91.07
2018-04-24T02:51:46.659Z,92.43
2018-04-24T02:54:14.628Z,91.55
2018-04-24T02:56:42.590Z,92.95
2018-04-24T02:59:10.456Z,93.55
2018-04-24T03:01:38.328Z,91.15
2018-04-24T03:04:06.186Z,94.25
2018-04-24T03:06:34.026Z,91.97
2018-04-24T03:09:01.995Z,94.57
2018-04-24T03:11:29.891Z,91.78
2018-04-24T03:13:57.755Z,93.40
2018-04-24T03:16:25.728Z,92.10
2018-04-24T03:19:11.290Z,92.05
2018-04-24T03:21:39.276Z,91.20
2018-04-24T03:24:07.346Z,94.68
2018-04-24T03:26:35.210Z,90.90
2018-04-24T03:29:03.077Z,94.55
2018-04-24T03:31:31.049Z,93.43
2018-04-24T03:33:58.910Z,93.40
2018-04-24T03:36:26.775Z,92.45
2018-04-24T03:38:54.621Z,90.87
2018-04-24T03:41:22.512Z,92.03
2018-04-24T03:43:50.477Z,92.78
2018-04-24T03:46:18.553Z,90.65
2018-04-24T03:48:46.417Z,91.80
2018-04-24T03:51:14.282Z,92.62
2018-04-24T03:53:42.149Z,91.05
2018-04-24T03:56:10.012Z,96.93
2018-04-24T03:58:37.880Z,95.43
2018-04-24T04:01:05.744Z,112.68
2018-04-24T04:03:33.610Z,110.37
2018-04-24T04:06:01.584Z,113.50
2018-04-24T04:08:29.444Z,105.70
2018-04-24T04:10:57.619Z,103.87
2018-04-24T04:13:25.709Z,105.93
2018-04-24T04:15:53.705Z,96.80
2018-04-24T04:18:33.611Z,112.03
2018-04-24T04:21:13.520Z,116.18
2018-04-24T04:23:53.288Z,130.52
2018-04-24T04:26:21.083Z,114.60
2018-04-24T04:28:48.871Z,118.78
2018-04-24T04:31:17.722Z,131.30
2018-04-24T04:33:45.587Z,114.30
2018-04-24T04:36:13.453Z,117.18
2018-04-24T04:38:41.420Z,111.18
2018-04-24T04:41:09.388Z,105.20
2018-04-24T04:43:37.259Z,99.80
2018-04-24T04:46:05.120Z,103.65
2018-04-24T04:48:32.987Z,98.80
2018-04-24T04:51:00.856Z,99.35
2018-04-24T04:53:28.725Z,102.87
2018-04-24T04:55:56.546Z,96.12
2018-04-24T04:58:24.449Z,96.50
2018-04-24T05:00:52.276Z,95.55
2018-04-24T05:03:20.182Z,97.32
2018-04-24T05:05:48.047Z,96.97
2018-04-24T05:08:16.017Z,111.90
2018-04-24T05:10:43.884Z,102.78
2018-04-24T05:13:11.671Z,102.40
2018-04-24T05:15:40.410Z,100.07
2018-04-24T05:18:08.403Z,106.53
2018-04-24T05:20:36.374Z,104.40
2018-04-24T05:23:04.242Z,110.12
2018-04-24T05:25:32.207Z,109.53
2018-04-24T05:28:00.074Z,110.55
2018-04-24T05:30:27.941Z,108.50
2018-04-24T05:32:55.906Z,110.18
2018-04-24T05:35:23.787Z,111.03
2018-04-24T05:37:51.622Z,110.18
2018-04-24T05:40:20.187Z,119.30
2018-04-24T05:42:47.970Z,124.10
2018-04-24T05:45:15.817Z,127.07
2018-04-24T05:47:43.714Z,113.82
2018-04-24T05:50:11.584Z,117.30
2018-04-24T05:52:39.861Z,111.25
2018-04-24T05:55:07.726Z,113.22
2018-04-24T05:57:35.589Z,111.90
2018-04-24T06:00:03.558Z,115.60
2018-04-24T06:02:31.631Z,110.55
2018-04-24T06:04:59.497Z,109.93
2018-04-24T06:07:27.365Z,107.30
2018-04-24T06:09:55.331Z,106.43
2018-04-24T06:12:23.130Z,104.20
2018-04-24T06:14:51.777Z,106.53
2018-04-24T06:17:19.752Z,120.95
2018-04-24T06:19:47.719Z,109.78
2018-04-24T06:22:15.583Z,107.82
2018-04-24T06:24:43.447Z,105.97
2018-04-24T06:27:12.236Z,108.85
2018-04-24T06:29:40.037Z,102.90
2018-04-24T06:32:08.785Z,102.40
2018-04-24T06:34:36.653Z,100.30
2018-04-24T06:37:04.484Z,104.10
2018-04-24T06:39:32.347Z,103.97
2018-04-24T06:42:00.252Z,104.82
2018-04-24T06:44:28.116Z,102.10
2018-04-24T06:46:55.897Z,101.15
2018-04-24T06:49:23.662Z,97.20
2018-04-24T06:51:51.509Z,101.12
2018-04-24T06:54:19.377Z,96.18
2018-04-24T06:56:47.347Z,105.97
2018-04-24T06:59:15.132Z,98.80
2018-04-24T07:01:43.724Z,97.40
2018-04-24T07:04:12.382Z,99.50
2018-04-24T07:06:41.266Z,98.53
2018-04-24T07:09:09.232Z,102.18
2018-04-24T07:11:37.107Z,94.57
2018-04-24T07:14:04.967Z,97.75
2018-04-24T07:16:35.200Z,94.78
2018-04-24T07:19:03.078Z,106.90
2018-04-24T07:21:31.759Z,95.45
2018-04-24T07:23:59.724Z,95.78
2018-04-24T07:26:28.392Z,94.68
2018-04-24T07:28:56.372Z,94.72
2018-04-24T07:31:24.437Z,92.62
2018-04-24T07:33:52.403Z,92.57
2018-04-24T07:36:20.231Z,93.80
2018-04-24T07:38:48.029Z,94.72
2018-04-24T07:41:15.831Z,97.50
2018-04-24T07:43:44.375Z,93.37
2018-04-24T07:46:12.154Z,98.32
2018-04-24T07:48:40.010Z,94.60
2018-04-24T07:51:07.838Z,99.55
2018-04-24T07:53:35.617Z,98.07
2018-04-24T07:56:03.472Z,96.22
2018-04-24T07:58:31.263Z,95.90
2018-04-24T08:00:59.073Z,97.55
2018-04-24T08:03:27.691Z,95.47
2018-04-24T08:05:55.580Z,94.70
2018-04-24T08:08:23.452Z,95.18
2018-04-24T08:10:52.135Z,95.55
2018-04-24T08:13:20.104Z,93.80
2018-04-24T08:15:47.907Z,93.80
2018-04-24T08:18:16.467Z,88.72
2018-04-24T08:20:44.270Z,88.95
2018-04-24T08:23:12.075Z,90.80
2018-04-24T08:25:40.056Z,93.30
2018-04-24T08:28:07.829Z,94.40
2018-04-24T08:30:35.687Z,90.07
2018-04-24T08:33:03.648Z,91.53
2018-04-24T08:35:31.608Z,90.22
2018-04-24T08:37:59.579Z,90.78
2018-04-24T08:40:27.447Z,89.37
2018-04-24T08:42:56.133Z,92.15
2018-04-24T08:45:25.542Z,88.97
2018-04-24T08:47:53.588Z,88.50
2018-04-24T08:50:21.577Z,92.60
2018-04-24T08:52:51.080Z,91.40
2018-04-24T08:55:19.769Z,94.62
2018-04-24T08:57:47.629Z,88.15
2018-04-24T09:00:15.604Z,97.20
2018-04-24T09:02:43.463Z,94.05
2018-04-24T09:05:12.285Z,96.65
2018-04-24T09:07:40.865Z,93.70
2018-04-24T09:10:09.457Z,96.75
2018-04-24T09:12:38.305Z,93.20
2018-04-24T09:15:06.279Z,95.43
2018-04-24T09:17:34.065Z,94.20
2018-04-24T09:20:02.725Z,94.37
2018-04-24T09:22:30.590Z,93.97
2018-04-24T09:24:58.460Z,95.30
2018-04-24T09:27:27.071Z,89.95
2018-04-24T09:30:01.363Z,92.47
2018-04-24T09:32:29.141Z,89.68
2018-04-24T09:34:56.958Z,89.90
2018-04-24T09:37:24.754Z,94.37
2018-04-24T09:39:52.559Z,89.78
2018-04-24T09:42:20.391Z,90.53
2018-04-24T09:44:48.190Z,91.63
2018-04-24T09:47:16.036Z,90.65
2018-04-24T09:49:44.594Z,87.18
2018-04-24T09:52:13.139Z,95.12
2018-04-24T09:54:40.970Z,87.53
2018-04-24T09:57:09.544Z,90.50
2018-04-24T09:59:38.103Z,87.05
2018-04-24T10:02:05.884Z,91.12
2018-04-24T10:04:33.712Z,91.10
2018-04-24T10:07:01.515Z,91.05
2018-04-24T10:09:29.341Z,87.78
2018-04-24T10:11:57.095Z,88.65
2018-04-24T10:14:25.096Z,89.15
2018-04-24T10:16:54.506Z,88.32
2018-04-24T10:19:22.364Z,92.28
2018-04-24T10:21:50.192Z,87.93
2018-04-24T10:24:18.057Z,89.47
2018-04-24T10:26:45.853Z,87.90
2018-04-24T10:29:13.674Z,89.15
2018-04-24T10:31:41.512Z,85.72
2018-04-24T10:34:10.116Z,90.28
2018-04-24T10:36:38.649Z,87.40
2018-04-24T10:39:06.580Z,95.82
2018-04-24T10:41:34.445Z,85.28
2018-04-24T10:44:02.277Z,89.43
2018-04-24T10:46:30.945Z,87.82
2018-04-24T10:48:58.807Z,89.15
2018-04-24T10:51:26.673Z,88.37
2018-04-24T10:53:56.076Z,87.03
2018-04-24T10:56:24.039Z,88.28
2018-04-24T10:58:52.012Z,86.10
2018-04-24T11:01:19.809Z,87.60
2018-04-24T11:03:48.333Z,89.68
2018-04-24T11:06:16.163Z,90.65
2018-04-24T11:08:43.955Z,87.90
2018-04-24T11:11:11.730Z,89.68
2018-04-24T11:13:39.509Z,87.68
2018-04-24T11:16:07.326Z,91.20
2018-04-24T11:18:35.110Z,89.45
2018-04-24T11:21:03.902Z,90.35
2018-04-24T11:23:31.662Z,87.72
2018-04-24T11:25:59.526Z,93.97
2018-04-24T11:28:27.390Z,88.28
2018-04-24T11:30:55.222Z,81.12
2018-04-24T11:33:23.810Z,84.57
2018-04-24T11:35:52.461Z,86.57
2018-04-24T11:38:20.340Z,85.10
2018-04-24T11:40:48.190Z,82.32
2018-04-24T11:43:15.980Z,89.65
2018-04-24T11:45:44.506Z,82.82
2018-04-24T11:48:12.308Z,90.22
2018-04-24T11:50:40.093Z,83.87
2018-04-24T11:53:08.646Z,80.68
2018-04-24T11:55:36.452Z,79.57
2018-04-24T11:58:05.056Z,81.57
2018-04-24T12:00:32.872Z,78.87
2018-04-24T12:03:00.717Z,86.65
2018-04-24T12:05:28.591Z,80.50
2018-04-24T12:07:56.391Z,79.12
2018-04-24T12:10:24.969Z,81.57
2018-04-24T12:12:53.549Z,83.40
2018-04-24T12:15:22.081Z,81.12
2018-04-24T12:17:49.874Z,84.32
2018-04-24T12:20:17.706Z,81.80
2018-04-24T12:22:45.494Z,87.40
2018-04-24T12:25:13.332Z,84.22
2018-04-24T12:27:41.164Z,83.65
2018-04-24T12:30:08.969Z,92.22
2018-04-24T12:32:36.913Z,88.22
2018-04-24T12:35:04.825Z,85.60
2018-04-24T12:37:32.830Z,88.62
2018-04-24T12:40:01.487Z,91.47
2018-04-24T12:42:29.288Z,86.05
2018-04-24T12:44:57.854Z,89.55
2018-04-24T12:47:26.410Z,86.15
2018-04-24T12:49:54.251Z,88.68
2018-04-24T12:52:22.058Z,88.47
2018-04-24T12:54:49.923Z,85.28
2018-04-24T12:57:17.730Z,88.55
2018-04-24T12:59:45.502Z,86.78
2018-04-24T13:02:13.409Z,89.85
2018-04-24T13:04:41.457Z,86.50
2018-04-24T13:07:09.351Z,88.22
2018-04-24T13:09:37.212Z,86.93
2018-04-24T13:12:05.006Z,90.28
2018-04-24T13:14:33.663Z,89.47
2018-04-24T13:17:01.460Z,89.70
2018-04-24T13:19:30.035Z,88.22
2018-04-24T13:21:58.687Z,84.13
2018-04-24T13:24:26.614Z,88.80
2018-04-24T13:26:54.523Z,84.72
2018-04-24T13:29:22.390Z,87.12
2018-04-24T13:31:50.148Z,88.72
2018-04-24T13:34:17.963Z,84.35
2018-04-24T13:36:45.829Z,83.62
2018-04-24T13:39:13.833Z,88.82
2018-04-24T13:41:41.833Z,87.32
2018-04-24T13:44:09.629Z,89.45
2018-04-24T13:46:37.405Z,87.40
2018-04-24T13:49:05.186Z,87.15
2018-04-24T13:51:33.001Z,85.47
2018-04-24T13:54:00.842Z,89.30
2018-04-24T13:56:28.683Z,87.62
2018-04-24T13:58:56.576Z,84.80
2018-04-24T14:01:24.526Z,90.40
2018-04-24T14:03:52.371Z,98.05
2018-04-24T14:06:20.155Z,86.60
2018-04-24T14:08:47.981Z,84.95
2018-04-24T14:11:16.541Z,89.00
2018-04-24T14:13:44.440Z,83.12
2018-04-24T14:16:12.262Z,86.50
2018-04-24T14:18:40.038Z,96.10
2018-04-24T14:21:08.602Z,83.78
2018-04-24T14:23:36.464Z,87.32
2018-04-24T14:26:04.406Z,88.87
2018-04-24T14:28:32.298Z,86.20
2018-04-24T14:31:00.167Z,86.10
2018-04-24T14:33:28.033Z,85.62
2018-04-24T14:35:55.810Z,86.55
2018-04-24T14:38:23.798Z,86.07
2018-04-24T14:40:52.364Z,84.90
2018-04-24T14:43:20.161Z,84.07
2018-04-24T14:45:48.183Z,87.05
2018-04-24T14:48:16.046Z,86.70
2018-04-24T14:50:44.017Z,84.40
2018-04-24T14:53:11.988Z,87.20
2018-04-24T14:55:41.348Z,84.50
2018-04-24T14:58:09.251Z,86.47
2018-04-24T15:00:37.120Z,85.95
2018-04-24T15:03:05.085Z,87.15
2018-04-24T15:05:33.770Z,81.15
2018-04-24T15:08:01.639Z,85.43
2018-04-24T15:10:29.505Z,83.20
2018-04-24T15:12:57.368Z,82.95
2018-04-24T15:15:25.351Z,84.75
2018-04-24T15:17:54.661Z,82.32
2018-04-24T15:20:23.328Z,84.22
2018-04-24T15:22:51.336Z,83.05
2018-04-24T15:25:19.261Z,85.05
2018-04-24T15:27:47.229Z,84.03
2018-04-24T15:30:15.096Z,86.00
2018-04-24T15:32:43.069Z,87.75
2018-04-24T15:35:10.987Z,87.80
2018-04-24T15:37:38.902Z,84.03
2018-04-24T15:40:06.766Z,90.75
2018-04-24T15:42:34.733Z,84.32
2018-04-24T15:45:02.597Z,89.20
2018-04-24T15:47:30.631Z,84.97
2018-04-24T15:49:58.533Z,87.75
2018-04-24T15:52:26.397Z,84.00
2018-04-24T15:54:54.418Z,86.63
2018-04-24T15:57:22.342Z,88.72
2018-04-24T15:59:50.259Z,88.57
2018-04-24T16:02:18.169Z,87.07
2018-04-24T16:04:46.038Z,84.65
2018-04-24T16:07:14.005Z,92.50
2018-04-24T16:09:41.870Z,86.43
2018-04-24T16:12:09.738Z,90.50
2018-04-24T16:14:37.603Z,84.93
2018-04-24T16:17:05.570Z,87.00
2018-04-24T16:19:33.545Z,85.20
2018-04-24T16:22:01.511Z,86.63
2018-04-24T16:24:30.191Z,86.32
2018-04-24T16:26:58.165Z,85.50
2018-04-24T16:29:26.026Z,85.03
2018-04-24T16:31:54.580Z,90.70
2018-04-24T16:34:22.411Z,88.68
2018-04-24T16:36:50.988Z,90.78
2018-04-24T16:39:19.896Z,88.50
2018-04-24T16:41:47.509Z,88.62
2018-04-24T16:44:15.375Z,93.30
2018-04-24T16:46:43.239Z,86.43
2018-04-24T16:49:11.309Z,91.22
2018-04-24T16:51:39.180Z,88.72
2018-04-24T16:54:07.048Z,91.00
2018-04-24T16:56:34.978Z,93.55
2018-04-24T16:59:02.878Z,91.97
2018-04-24T17:01:30.849Z,89.32
2018-04-24T17:03:58.711Z,88.82
2018-04-24T17:06:26.682Z,84.93
2018-04-24T17:08:54.547Z,87.78
2018-04-24T17:11:22.490Z,88.07
2018-04-24T17:13:50.379Z,84.82
2018-04-24T17:16:18.203Z,86.18
2018-04-24T17:18:46.115Z,92.47
2018-04-24T17:21:14.182Z,88.40
2018-04-24T17:23:42.049Z,85.30
2018-04-24T17:26:09.913Z,91.97
2018-04-24T17:28:37.885Z,85.72
2018-04-24T17:31:05.752Z,89.75
2018-04-24T17:33:33.615Z,86.97
2018-04-24T17:36:01.597Z,89.78
2018-04-24T17:38:29.553Z,87.40
2018-04-24T17:40:57.508Z,90.10
2018-04-24T17:43:25.402Z,85.47
2018-04-24T17:45:53.357Z,90.90
2018-04-24T17:48:21.222Z,91.70
2018-04-24T17:50:49.191Z,88.97
2018-04-24T17:53:17.368Z,85.22
2018-04-24T17:55:45.312Z,89.60
2018-04-24T17:58:13.205Z,90.15
2018-04-24T18:00:41.127Z,85.25
2018-04-24T18:03:09.125Z,89.75
2018-04-24T18:05:37.002Z,87.85
2018-04-24T18:08:04.973Z,93.15
2018-04-24T18:10:32.869Z,88.85
2018-04-24T18:13:01.625Z,89.00
2018-04-24T18:15:29.696Z,87.85
2018-04-24T18:17:57.669Z,91.10
2018-04-24T18:20:25.605Z,88.45
2018-04-24T18:22:53.608Z,87.75
2018-04-24T18:25:22.294Z,83.20
2018-04-24T18:27:50.148Z,85.75
2018-04-24T18:30:17.992Z,90.22
2018-04-24T18:32:45.962Z,87.47
2018-04-24T18:35:13.970Z,91.25
2018-04-24T18:37:41.825Z,84.70
2018-04-24T18:40:09.684Z,89.32
2018-04-24T18:42:37.549Z,90.57
2018-04-24T18:45:05.368Z,92.32
2018-04-24T18:47:33.233Z,83.97
2018-04-24T18:50:01.100Z,87.18
2018-04-24T18:52:28.910Z,85.90
2018-04-24T18:54:56.961Z,86.07
2018-04-24T18:57:24.880Z,93.35
2018-04-24T18:59:53.541Z,86.70
2018-04-24T19:02:21.588Z,88.82
2018-04-24T19:04:49.616Z,85.72
2018-04-24T19:07:18.239Z,91.63
2018-04-24T19:09:46.089Z,89.57
2018-04-24T19:12:13.941Z,92.22
2018-04-24T19:14:41.760Z,91.35
2018-04-24T19:17:09.606Z,92.32
2018-04-24T19:19:37.517Z,91.75
2018-04-24T19:22:06.115Z,98.60
2018-04-24T19:24:39.675Z,94.87
2018-04-24T19:27:07.540Z,97.62
2018-04-24T19:29:35.407Z,123.55
2018-04-24T19:32:09.110Z,118.37
2018-04-24T19:34:37.076Z,116.43
2018-04-24T19:37:05.052Z,116.43
2018-04-24T19:39:38.499Z,112.45
2018-04-24T19:42:06.514Z,118.62
2018-04-24T19:44:34.511Z,104.30
2018-04-24T19:47:03.496Z,104.07
2018-04-24T19:49:37.837Z,100.70
2018-04-24T19:52:05.869Z,107.40
2018-04-24T19:54:33.949Z,98.28
2018-04-24T19:57:01.749Z,103.25
2018-04-24T19:59:29.740Z,103.38
2018-04-24T20:01:57.736Z,103.05
2018-04-24T20:04:25.775Z,100.20
2018-04-24T20:06:54.400Z,99.72
2018-04-24T20:09:22.383Z,102.12
2018-04-24T20:11:51.350Z,102.47
2018-04-24T20:14:19.326Z,98.20
2018-04-24T20:16:47.986Z,103.72
2018-04-24T20:19:16.113Z,99.20
2018-04-24T20:21:45.000Z,102.07
2018-04-24T20:24:13.799Z,96.12
2018-04-24T20:26:41.881Z,93.28
2018-04-24T20:29:10.214Z,97.53
2018-04-24T20:31:38.478Z,100.62
2018-04-24T20:34:06.596Z,99.28
2018-04-24T20:36:35.116Z,97.97
2018-04-24T20:39:03.408Z,100.90
2018-04-24T20:41:31.339Z,105.50
2018-04-24T20:43:59.345Z,99.35
2018-04-24T20:46:27.316Z,119.03
2018-04-24T20:48:55.381Z,96.60
2018-04-24T20:51:24.068Z,91.60
2018-04-24T20:53:52.036Z,93.25
2018-04-24T20:56:19.836Z,102.78
2018-04-24T20:58:48.481Z,89.93
2018-04-24T21:01:16.359Z,94.30
2018-04-24T21:03:44.233Z,107.70
2018-04-24T21:06:12.226Z,93.00
2018-04-24T21:08:40.843Z,87.50
2018-04-24T21:11:08.639Z,87.15
2018-04-24T21:13:36.457Z,87.37
2018-04-24T21:16:04.283Z,86.65
2018-04-24T21:18:32.139Z,87.43
2018-04-24T21:21:00.100Z,86.45
2018-04-24T21:23:28.272Z,99.62
2018-04-24T21:25:56.257Z,89.20
2018-04-24T21:28:24.317Z,90.22
2018-04-24T21:30:52.184Z,88.25
2018-04-24T21:33:20.150Z,86.63
2018-04-24T21:35:48.234Z,100.82
2018-04-24T21:38:16.288Z,87.70
2018-04-24T21:40:44.259Z,86.87
2018-04-24T21:43:12.121Z,88.45
2018-04-24T21:45:40.810Z,96.23
2018-04-24T21:48:08.777Z,93.18
2018-04-24T21:50:36.874Z,90.45
2018-04-24T21:53:04.827Z,86.07
2018-04-24T21:55:32.647Z,88.15
2018-04-24T21:59:45.034Z,87.72
2018-04-24T22:02:13.649Z,87.50
2018-04-24T22:04:41.463Z,86.20
2018-04-24T22:07:09.258Z,86.43
2018-04-24T22:09:37.138Z,86.40
2018-04-24T22:12:04.923Z,85.87
2018-04-24T22:14:32.962Z,85.82
2018-04-24T22:17:00.755Z,88.35
2018-04-24T22:19:28.590Z,90.30
2018-04-24T22:21:56.529Z,88.87
2018-04-24T22:24:25.115Z,90.57
2018-04-24T22:26:52.984Z,85.32
2018-04-24T22:29:21.553Z,90.50
2018-04-24T22:31:49.349Z,88.05
2018-04-24T22:34:17.143Z,90.30
2018-04-24T22:36:44.995Z,86.87
2018-04-24T22:39:12.807Z,90.15
2018-04-24T22:41:40.610Z,86.22
2018-04-24T22:44:08.448Z,118.80
2018-04-24T22:46:36.246Z,87.07
2018-04-24T22:49:04.364Z,83.50
2018-04-24T22:51:32.148Z,84.37
2018-04-24T22:53:59.975Z,82.80
2018-04-24T22:56:27.964Z,84.55
2018-04-24T22:58:55.836Z,82.12
2018-04-24T23:01:24.011Z,86.37
2018-04-24T23:03:51.934Z,84.85
2018-04-24T23:06:19.836Z,87.28
2018-04-24T23:08:47.808Z,84.93
2018-04-24T23:11:27.762Z,85.30
2018-04-24T23:14:07.610Z,84.55
2018-04-24T23:16:47.454Z,83.22
2018-04-24T23:19:27.301Z,83.53
2018-04-24T23:21:54.754Z,83.45
2018-04-24T23:24:23.539Z,86.40
2018-04-24T23:26:51.523Z,83.30
2018-04-24T23:29:19.372Z,86.22
2018-04-24T23:31:47.351Z,83.12
2018-04-24T23:34:15.315Z,85.97
2018-04-24T23:36:43.291Z,82.18
2018-04-24T23:39:11.351Z,83.32
2018-04-24T23:41:39.297Z,82.25
2018-04-24T23:44:07.187Z,85.07
2018-04-24T23:46:35.060Z,84.90
2018-04-24T23:49:03.032Z,81.87
2018-04-24T23:51:30.995Z,85.10
2018-04-24T23:53:59.062Z,83.82
2018-04-24T23:56:27.138Z,83.93
2018-04-24T23:58:55.303Z,82.97
